Huvudsida
METAR-TAF:

METAR-TAF

Flygplatser :

Budapest-Ferenc Liszts internationella flygplats

Budapest, Ungern

latitud: 47-26N, longitud: 019-16E, höjd: 151 m

Aktuellt väderrapport

Denna rapport gjordes för 21 minuter sedan, klockan 16:30 UTC
Vind 6 kt från sydväst
Temperatur 19°C
Fuktighet 60%
Tryck 1015 hPa
Sikt 10 km eller mer
Inga moln under 1 500 m eller inga cumulonimbus

METAR: LHBP 181630Z 22006KT CAVOK 19/11 Q1015 NOSIG

Tid: 18:51 (16:51 UTC)

Väderprognos

Denna rapport gjordes för 5 timmar och 36 minuter sedan, klockan 11:15 UTC
Prognos gäller från 18 kl. 12 UTC till 19 kl. 12 UTC
Vind 8 kt från syd
Sikt 10 km eller mer
Inga moln under 1 500 m eller inga cumulonimbus
Blir
från 18 kl. 15 UTC till 18 kl. 17 UTC
Vind 3 kt varierande vindriktning
Temporärt
från 19 kl. 02 UTC till 19 kl. 06 UTC
grunt dimma
Blir
från 19 kl. 08 UTC till 19 kl. 10 UTC
Vind 9 kt från syd

TAF: LHBP 181115Z 1812/1912 18008KT CAVOK BECMG 1815/1817 VRB03KT TEMPO 1902/1906 MIFG BECMG 1908/1910 18009KT

Aktuella väderrapporter och prognoser från 4000 flygplatser (METAR- och TAF-rapporter).

De tillgängliga stationerna syns som gula och röda prickar på kartan.

För musen över prickarna för att se namnen på stationerna.

Klicka sedan för att få väderrapporter och prognoser.

För att ändra kartan: Klicka på de gröna knapparna med ett svart kors på för att zooma in; den gröna knappen med ett streck på för att zooma ut; eller på de gröna pilarna för angränsande kartor.


METAR-TAF: